Time;durP1;ratioP1;P1;durP2;ratioP2;P2;SDS_P1;SDS_P2;PMS_P1;PMS_P2;Temp;Humidity;BMP_temperature;BMP_pressure;BME280_temperature;BME280_humidity;BME280_pressure;Samples;Min_cycle;Max_cycle;Signal;HPM_P1;HPM_P2
2023/05/12 00:00:55;;;;;;;5.47;2.85;;;;;;;10.88;54.53;97845.38;10283678;28;20038;-52
2023/05/12 00:05:54;;;;;;;9.60;3.40;;;;;;;10.91;53.55;97873.06;10284849;28;20065;-52
2023/05/12 00:10:53;;;;;;;6.57;3.03;;;;;;;10.93;53.11;97869.59;10284478;28;20034;-52
2023/05/12 00:15:54;;;;;;;6.03;3.05;;;;;;;10.85;52.99;97866.13;10284011;28;20034;-51
2023/05/12 00:20:53;;;;;;;3.80;2.88;;;;;;;10.88;52.57;97863.53;10283591;28;20069;-52
2023/05/12 00:25:52;;;;;;;5.60;3.15;;;;;;;10.85;52.94;97873.91;10284781;28;20073;-52
2023/05/12 00:30:51;;;;;;;5.45;2.35;;;;;;;10.73;52.98;97868.69;10283164;28;20040;-52
2023/05/12 00:35:50;;;;;;;4.25;2.70;;;;;;;10.68;53.28;97871.28;10283386;28;20072;-51
2023/05/12 00:40:49;;;;;;;5.78;2.83;;;;;;;10.43;52.54;97843.63;10282874;28;20545;-52
2023/05/12 00:45:48;;;;;;;7.60;2.75;;;;;;;10.24;52.09;97821.94;10283120;28;20117;-52
2023/05/12 00:50:48;;;;;;;4.70;2.67;;;;;;;10.55;51.23;97886.00;10282552;28;20045;-52
2023/05/12 00:55:47;;;;;;;4.03;2.70;;;;;;;10.66;51.47;97882.53;10282976;28;20077;-52
2023/05/12 01:00:46;;;;;;;4.32;2.30;;;;;;;10.55;50.64;97882.53;10281444;28;20036;-52
2023/05/12 01:06:08;;;;;;;2.85;2.35;;;;;;;10.47;50.74;97886.84;10282662;28;20069;-51
2023/05/12 01:11:07;;;;;;;4.28;2.30;;;;;;;10.37;50.75;97881.63;10282213;28;20101;-51
2023/05/12 01:16:09;;;;;;;5.20;2.50;;;;;;;10.35;50.59;97877.31;10281727;28;20475;-51
2023/05/12 01:21:09;;;;;;;5.20;2.38;;;;;;;10.39;50.83;97882.50;10281543;28;20072;-52
2023/05/12 01:26:09;;;;;;;4.18;2.53;;;;;;;10.43;50.51;97883.38;10281755;28;20065;-52
2023/05/12 01:31:08;;;;;;;6.65;2.40;;;;;;;10.34;50.55;97870.41;10281619;28;20124;-52
2023/05/12 01:36:07;;;;;;;8.18;2.15;;;;;;;10.26;50.62;97877.28;10279731;28;20122;-51
2023/05/12 01:41:06;;;;;;;4.60;2.58;;;;;;;10.34;51.35;97891.16;10281130;28;20108;-52
2023/05/12 01:46:05;;;;;;;6.30;3.03;;;;;;;10.38;52.32;97892.91;10280961;28;20577;-51
2023/05/12 01:51:07;;;;;;;11.88;2.53;;;;;;;10.28;52.49;97896.31;10280544;28;20030;-51
2023/05/12 01:56:06;;;;;;;5.30;2.70;;;;;;;10.31;53.08;97897.19;10281097;28;20081;-53
2023/05/12 02:01:05;;;;;;;4.55;2.25;;;;;;;10.16;52.23;97879.00;10280108;28;20045;-52
2023/05/12 02:06:04;;;;;;;3.92;2.33;;;;;;;10.16;52.78;97895.41;10279990;28;20212;-52
2023/05/12 02:11:04;;;;;;;;;;;;;;;10.08;53.04;97888.50;10279895;28;20144;-52
2023/05/12 02:16:03;;;;;;;;;;;;;;;10.06;54.92;97903.19;10281844;28;19952;-52
2023/05/12 02:21:02;;;;;;;4.10;2.47;;;;;;;9.98;56.67;97906.59;10279204;28;20443;-52
2023/05/12 02:26:01;;;;;;;5.00;2.70;;;;;;;9.94;57.81;97907.44;10279629;28;20503;-52
2023/05/12 02:31:00;;;;;;;4.57;2.78;;;;;;;9.76;58.38;97882.31;10279248;28;20034;-52
2023/05/12 02:35:59;;;;;;;5.15;2.95;;;;;;;9.90;59.86;97917.78;10279308;28;20033;-52
2023/05/12 02:40:58;;;;;;;4.00;2.53;;;;;;;9.74;60.24;97916.84;10278775;28;20551;-52
2023/05/12 02:45:57;;;;;;;4.63;2.63;;;;;;;9.63;61.84;97922.00;10278971;28;20468;-52
2023/05/12 02:50:56;;;;;;;6.53;2.80;;;;;;;9.40;63.06;97905.47;10278669;28;20664;-52
2023/05/12 02:55:55;;;;;;;4.32;2.60;;;;;;;9.34;64.40;97929.56;10278792;28;20504;-51
2023/05/12 03:00:54;;;;;;;4.35;2.95;;;;;;;9.06;63.84;97889.66;10278661;28;20458;-52
2023/05/12 03:05:53;;;;;;;4.38;3.15;;;;;;;9.27;65.59;97931.22;10278961;28;20037;-52
2023/05/12 03:10:52;;;;;;;3.92;2.90;;;;;;;9.11;67.03;97942.31;10278769;28;20125;-51
2023/05/12 03:15:51;;;;;;;6.63;3.63;;;;;;;9.05;68.25;97932.81;10278351;28;20117;-51
2023/05/12 03:20:50;;;;;;;5.18;3.17;;;;;;;9.05;69.16;97927.63;10277739;28;20030;-51
2023/05/12 03:25:49;;;;;;;5.38;2.67;;;;;;;8.91;68.58;97934.41;10278597;28;20095;-51
2023/05/12 03:30:48;;;;;;;6.72;2.70;;;;;;;8.88;69.08;97924.91;10278193;28;20121;-52
2023/05/12 03:35:47;;;;;;;7.38;3.08;;;;;;;9.02;69.24;97943.13;10277339;28;20120;-52
2023/05/12 03:40:51;;;;;;;7.82;3.55;;;;;;;9.00;69.10;97937.06;10277794;28;20137;-52
2023/05/12 03:45:50;;;;;;;6.50;3.13;;;;;;;8.96;70.36;97953.44;10278085;28;20072;-51
2023/05/12 03:50:49;;;;;;;5.10;2.92;;;;;;;8.93;70.22;97959.44;10275193;28;20138;-52
2023/05/12 03:55:48;;;;;;;7.43;4.00;;;;;;;8.81;69.79;97963.63;10278469;28;20069;-52
2023/05/12 04:00:48;;;;;;;4.88;3.38;;;;;;;8.81;70.65;97969.69;10284925;28;20412;-51
2023/05/12 04:05:48;;;;;;;4.78;2.88;;;;;;;8.74;71.92;97973.09;10284457;28;20077;-51
2023/05/12 04:10:47;;;;;;;5.50;3.33;;;;;;;8.76;72.29;97978.25;10284136;28;20511;-52
2023/05/12 04:15:46;;;;;;;6.45;3.30;;;;;;;8.71;73.32;97973.88;10285538;28;20124;-52
2023/05/12 04:20:45;;;;;;;7.05;3.95;;;;;;;8.76;73.66;97978.25;10282336;28;20116;-51
2023/05/12 04:25:44;;;;;;;4.82;3.60;;;;;;;8.60;74.09;97953.94;10283843;28;20041;-52
2023/05/12 04:30:42;;;;;;;8.80;3.85;;;;;;;8.80;74.32;97980.88;10280603;28;20573;-51
2023/05/12 04:35:41;;;;;;;5.75;3.50;;;;;;;8.96;74.57;97997.44;10280217;28;20044;-51
2023/05/12 04:40:40;;;;;;;7.18;4.07;;;;;;;9.02;74.60;97996.59;10281258;28;20549;-51
2023/05/12 04:45:39;;;;;;;5.93;3.67;;;;;;;8.92;72.42;97981.00;10282992;28;20045;-51
2023/05/12 04:50:38;;;;;;;;;;;;;;;8.99;72.04;97987.09;10283477;28;20165;-52
2023/05/12 04:55:37;;;;;;;6.30;3.35;;;;;;;9.10;72.44;97992.38;10280838;28;20008;-52
2023/05/12 05:00:36;;;;;;;8.40;3.70;;;;;;;9.33;73.13;97990.88;10282418;28;20117;-52
2023/05/12 05:05:35;;;;;;;;;;;;;;;9.58;71.33;97996.22;10282923;28;20515;-52
2023/05/12 05:10:34;;;;;;;8.23;4.22;;;;;;;9.70;70.03;97996.31;10280470;28;20383;-52
2023/05/12 05:15:33;;;;;;;;;;;;;;;9.83;71.24;97992.06;10281985;28;20129;-51
2023/05/12 05:20:33;;;;;;;7.82;4.88;;;;;;;9.69;71.27;97947.06;10279070;28;20011;-52
2023/05/12 05:25:32;;;;;;;10.43;5.90;;;;;;;10.17;71.48;97992.25;10281934;28;20068;-51
2023/05/12 05:30:31;;;;;;;7.68;4.70;;;;;;;10.33;72.12;97996.66;10281752;28;20032;-51
2023/05/12 05:35:30;;;;;;;7.13;4.70;;;;;;;10.56;70.38;98001.03;10280158;28;20489;-51
2023/05/12 05:40:29;;;;;;;;;;;;;;;10.78;69.39;98001.97;10280113;28;20448;-52
2023/05/12 05:45:28;;;;;;;8.05;5.38;;;;;;;10.98;67.99;98015.00;10281745;28;20443;-52
2023/05/12 05:50:27;;;;;;;6.22;4.35;;;;;;;10.99;66.81;98015.00;10281795;28;20125;-51
2023/05/12 05:55:26;;;;;;;6.13;4.28;;;;;;;10.94;64.56;98021.03;10280456;28;20045;-52
2023/05/12 06:00:25;;;;;;;5.72;3.90;;;;;;;10.69;63.64;98022.69;10280242;28;20040;-52
2023/05/12 06:05:24;;;;;;;8.45;4.53;;;;;;;10.09;63.58;97900.59;10276842;28;20084;-52
2023/05/12 06:10:23;;;;;;;5.80;3.90;;;;;;;10.63;63.06;98018.34;10279406;28;20029;-50
2023/05/12 06:15:22;;;;;;;5.90;4.00;;;;;;;10.77;63.49;98013.19;10279432;28;20124;-52
2023/05/12 06:20:22;;;;;;;5.93;4.20;;;;;;;10.90;63.59;98022.78;10279055;28;20117;-51
2023/05/12 06:25:21;;;;;;;7.75;4.15;;;;;;;10.59;62.47;97963.00;10277773;28;20057;-52
2023/05/12 06:30:20;;;;;;;7.65;4.68;;;;;;;11.19;62.66;98020.22;10279314;28;20034;-52
2023/05/12 06:35:19;;;;;;;7.25;5.22;;;;;;;11.53;63.36;98030.63;10279918;28;20077;-52
2023/05/12 06:40:18;;;;;;;6.60;4.57;;;;;;;11.70;65.79;98038.41;10279220;28;20029;-52
2023/05/12 06:45:17;;;;;;;7.95;5.85;;;;;;;11.78;67.14;98041.88;10278799;28;20034;-52
2023/05/12 06:50:16;;;;;;;9.68;5.13;;;;;;;11.85;67.04;98050.50;10279565;28;20034;-52
2023/05/12 06:55:18;;;;;;;13.98;6.65;;;;;;;11.91;67.99;98047.91;10278791;28;20042;-53
2023/05/12 07:00:17;;;;;;;12.40;7.38;;;;;;;12.16;67.46;98046.13;10278372;28;20477;-54
2023/05/12 07:05:17;;;;;;;8.27;5.68;;;;;;;12.33;64.92;98045.25;10279014;28;20065;-52
2023/05/12 07:10:16;;;;;;;8.95;5.28;;;;;;;12.54;64.05;98045.16;10277992;28;20561;-52
2023/05/12 07:15:15;;;;;;;;;;;;;;;12.79;61.27;98045.91;10279658;28;20069;-53
2023/05/12 07:20:14;;;;;;;7.40;4.55;;;;;;;12.85;58.74;98045.00;10278001;28;19971;-52
2023/05/12 07:25:14;;;;;;;7.80;5.50;;;;;;;12.93;60.23;98038.03;10277892;28;20491;-52
2023/05/12 07:30:13;;;;;;;12.57;7.72;;;;;;;13.14;59.14;98045.72;10275079;28;20117;-53
2023/05/12 07:35:12;;;;;;;17.30;7.75;;;;;;;12.70;59.87;97999.97;10285875;28;20120;-52
2023/05/12 07:40:11;;;;;;;14.35;8.65;;;;;;;13.20;59.17;98046.53;10283900;28;20038;-52
2023/05/12 07:45:10;;;;;;;14.82;9.32;;;;;;;13.29;61.01;98055.16;10285501;28;20161;-52
2023/05/12 07:50:09;;;;;;;;;;;;;;;13.04;62.48;98051.84;10278364;28;20148;-53
2023/05/12 07:55:08;;;;;;;10.10;6.78;;;;;;;12.80;63.71;98049.38;10278933;28;20016;-52
2023/05/12 08:00:08;;;;;;;;;;;;;;;12.66;64.28;98058.13;10283180;28;20053;-52
2023/05/12 08:05:10;;;;;;;8.13;6.33;;;;;;;12.64;63.77;98057.25;10282472;28;20007;-52
2023/05/12 08:10:11;;;;;;;9.73;7.15;;;;;;;12.88;63.95;98060.63;10282141;28;20152;-52
2023/05/12 08:15:11;;;;;;;12.70;8.15;;;;;;;13.09;63.48;98057.91;10282774;28;20167;-52
2023/05/12 08:20:10;;;;;;;13.50;7.78;;;;;;;13.31;63.24;98056.00;10283410;28;20108;-52
2023/05/12 08:25:09;;;;;;;10.48;7.55;;;;;;;13.52;62.72;98065.41;10283894;28;20322;-52
2023/05/12 08:30:08;;;;;;;;;;;;;;;13.57;62.26;98073.25;10283545;28;20046;-52
2023/05/12 08:35:07;;;;;;;11.00;7.53;;;;;;;13.77;61.89;98075.66;10283630;28;20379;-52
2023/05/12 08:40:12;;;;;;;;;;;;;;;13.85;60.43;98062.56;10283894;28;20030;-53
2023/05/12 08:45:11;;;;;;;8.35;5.40;;;;;;;14.12;59.02;98066.63;10282666;28;19963;-53
2023/05/12 08:50:11;;;;;;;;;;;;;;;14.05;58.77;98068.44;10282584;28;20482;-54
2023/05/12 08:55:11;;;;;;;8.93;6.65;;;;;;;14.23;58.02;98071.75;10283315;28;19949;-53
2023/05/12 09:00:11;;;;;;;10.73;7.22;;;;;;;14.37;58.63;98075.09;10281886;28;20113;-52
2023/05/12 09:05:10;;;;;;;9.70;5.93;;;;;;;14.66;57.61;98053.84;10281465;28;20099;-52
2023/05/12 09:10:20;;;;;;;;;;;;;;;14.73;57.10;98062.50;10283151;28;20103;-52
2023/05/12 09:15:27;;;;;;;11.07;5.93;;;;;;;15.08;57.58;98054.19;10281883;28;20301;-53
2023/05/12 09:20:26;;;;;;;6.32;4.63;;;;;;;15.39;54.99;98051.13;10281364;28;20062;-52
2023/05/12 09:25:25;;;;;;;;;;;;;;;15.63;55.63;98049.88;10282003;28;20041;-53
2023/05/12 09:30:34;;;;;;;8.53;4.80;;;;;;;15.67;53.83;98048.94;10280689;28;20413;-53
2023/05/12 09:35:43;;;;;;;;;;;;;;;15.81;54.53;98038.25;10279618;28;20073;-53
2023/05/12 09:40:42;;;;;;;8.23;4.95;;;;;;;15.91;52.83;98034.59;10281207;28;19940;-52
2023/05/12 09:45:42;;;;;;;9.85;5.28;;;;;;;15.83;52.63;98046.94;10281416;28;20069;-52
2023/05/12 09:50:44;;;;;;;7.72;4.43;;;;;;;15.94;51.66;98042.38;10280508;28;20758;-53
2023/05/12 09:55:44;;;;;;;6.28;4.63;;;;;;;15.72;53.03;98047.09;10281303;28;20061;-53
2023/05/12 10:00:43;;;;;;;7.07;4.40;;;;;;;15.72;52.16;98005.25;10280659;28;20101;-54
2023/05/12 10:05:53;;;;;;;7.78;5.13;;;;;;;16.54;50.22;98045.63;10279095;28;20112;-52
2023/05/12 10:10:53;;;;;;;7.63;4.60;;;;;;;16.26;49.51;98025.22;10279875;28;20116;-52
2023/05/12 10:15:56;;;;;;;9.68;5.35;;;;;;;16.47;50.09;98035.25;10279781;28;20113;-53
2023/05/12 10:20:55;;;;;;;10.27;5.30;;;;;;;16.71;48.32;98028.63;10279674;28;20065;-54
2023/05/12 10:26:00;;;;;;;6.22;4.80;;;;;;;16.86;48.21;98034.47;10280252;28;20061;-53
2023/05/12 10:30:59;;;;;;;11.02;4.95;;;;;;;17.06;47.46;98034.06;10277589;28;20140;-53
2023/05/12 10:35:59;;;;;;;10.20;5.57;;;;;;;16.68;47.83;98027.84;10279749;28;20488;-54
2023/05/12 10:41:02;;;;;;;9.15;5.43;;;;;;;16.28;48.45;98028.66;10281014;28;20068;-53
2023/05/12 10:46:09;;;;;;;7.93;4.88;;;;;;;15.81;49.40;98023.44;10279228;28;20053;-53
2023/05/12 10:51:09;;;;;;;8.13;5.72;;;;;;;15.98;50.47;98030.97;10280838;28;20612;-52
2023/05/12 10:56:08;;;;;;;8.25;5.05;;;;;;;16.25;50.29;98023.47;10278833;28;20132;-53
2023/05/12 11:01:07;;;;;;;6.88;4.80;;;;;;;15.87;49.13;98027.69;10276050;28;20044;-52
2023/05/12 11:06:06;;;;;;;;;;;;;;;15.57;50.83;98034.25;10280304;28;20107;-52
2023/05/12 11:11:04;;;;;;;8.80;5.10;;;;;;;15.45;51.53;98019.63;10285894;28;19924;-53
2023/05/12 11:16:04;;;;;;;;;;;;;;;15.63;51.52;98037.66;10286749;28;20033;-52
2023/05/12 11:21:10;;;;;;;7.20;4.87;;;;;;;15.74;50.92;98032.25;10286908;28;19913;-52
2023/05/12 11:26:16;;;;;;;6.32;5.03;;;;;;;15.89;51.30;98028.50;10286233;28;20192;-53
2023/05/12 11:31:19;;;;;;;8.30;5.10;;;;;;;15.59;52.39;98012.41;10285645;28;20120;-53
2023/05/12 11:36:20;;;;;;;8.63;5.10;;;;;;;15.75;52.73;98027.88;10284535;28;20112;-55
2023/05/12 11:41:26;;;;;;;10.70;5.97;;;;;;;14.74;54.99;97913.59;10285407;28;20113;-52
2023/05/12 11:46:26;;;;;;;9.48;5.50;;;;;;;15.44;54.83;98049.31;10285194;28;20491;-53
2023/05/12 11:51:26;;;;;;;9.73;5.40;;;;;;;15.34;55.47;98053.81;10284940;28;20129;-52
2023/05/12 11:56:25;;;;;;;8.02;6.00;;;;;;;15.12;57.61;98047.16;10285362;28;20169;-53
2023/05/12 12:01:24;;;;;;;9.45;6.18;;;;;;;14.99;58.66;98052.59;10284808;28;20130;-52
2023/05/12 12:06:23;;;;;;;7.43;5.88;;;;;;;14.95;59.98;98060.47;10278410;28;20441;-54
2023/05/12 12:11:25;;;;;;;;;;;;;;;14.93;59.24;98055.28;10281323;28;20025;-54
2023/05/12 12:16:28;;;;;;;10.20;6.40;;;;;;;14.71;61.09;98056.41;10283328;28;20635;-53
2023/05/12 12:21:27;;;;;;;9.45;6.93;;;;;;;14.64;63.07;98055.63;10278673;28;20144;-53
2023/05/12 12:26:26;;;;;;;;;;;;;;;14.85;62.83;98049.28;10283437;28;20073;-54
2023/05/12 12:31:25;;;;;;;9.07;7.07;;;;;;;14.97;62.08;98043.03;10287505;28;19957;-53
2023/05/12 12:36:24;;;;;;;;;;;;;;;15.25;61.57;98052.19;10288510;28;20037;-53
2023/05/12 12:41:23;;;;;;;8.97;6.67;;;;;;;15.62;59.92;98069.94;10287300;28;19913;-53
2023/05/12 12:46:22;;;;;;;9.88;7.90;;;;;;;15.81;59.80;98054.81;10286088;28;20684;-53
2023/05/12 12:51:21;;;;;;;8.05;6.80;;;;;;;16.28;58.36;98044.38;10286400;28;20542;-53
2023/05/12 12:56:20;;;;;;;;;;;;;;;16.60;56.99;98038.47;10284014;28;20030;-53
2023/05/12 13:01:19;;;;;;;8.43;6.22;;;;;;;16.55;55.58;98036.84;10284493;28;20375;-52
2023/05/12 13:06:18;;;;;;;8.55;6.75;;;;;;;16.77;54.99;98043.38;10283283;28;20418;-53
2023/05/12 13:11:17;;;;;;;;;;;;;;;16.38;54.66;98042.44;10282400;28;20133;-53
2023/05/12 13:16:16;;;;;;;8.97;7.47;;;;;;;16.18;57.51;98035.81;10284721;28;19914;-53
2023/05/12 13:21:15;;;;;;;;;;;;;;;16.13;57.09;98042.91;10284393;28;20112;-53
2023/05/12 13:26:14;;;;;;;9.83;7.53;;;;;;;16.36;56.20;98034.59;10283311;28;20750;-53
2023/05/12 13:31:12;;;;;;;;;;;;;;;16.35;56.45;98043.38;10282292;28;20061;-54
2023/05/12 13:36:11;;;;;;;11.20;7.13;;;;;;;16.45;55.98;98037.03;10284294;28;19931;-53
2023/05/12 13:41:10;;;;;;;11.18;6.25;;;;;;;16.28;55.84;98036.53;10285666;28;20462;-53
2023/05/12 13:46:09;;;;;;;9.52;7.10;;;;;;;15.71;57.18;98013.09;10285627;28;20076;-53
2023/05/12 13:51:09;;;;;;;9.50;8.05;;;;;;;15.72;58.18;98034.03;10284503;28;20127;-53
2023/05/12 13:56:08;;;;;;;11.70;8.70;;;;;;;15.77;58.09;98031.31;10285087;28;20069;-53
2023/05/12 14:01:07;;;;;;;14.45;9.43;;;;;;;15.71;58.33;98036.66;10284294;28;20061;-54
2023/05/12 14:06:06;;;;;;;12.35;9.10;;;;;;;15.61;58.64;98031.56;10283625;28;20088;-53
2023/05/12 14:11:05;;;;;;;10.02;7.22;;;;;;;15.40;58.46;97995.31;10283773;28;20127;-53
2023/05/12 14:16:04;;;;;;;10.05;7.30;;;;;;;15.46;58.54;97995.22;10283740;28;20058;-53
2023/05/12 14:21:05;;;;;;;11.70;8.32;;;;;;;15.79;58.36;98035.66;10274476;28;20065;-53
2023/05/12 14:26:04;;;;;;;11.52;7.28;;;;;;;15.69;58.54;98039.28;10280319;28;20061;-53
2023/05/12 14:31:03;;;;;;;9.48;7.93;;;;;;;15.56;59.10;98046.50;10279451;28;20484;-53
2023/05/12 14:36:02;;;;;;;;;;;;;;;15.40;58.86;98043.25;10279550;28;20065;-53
2023/05/12 14:41:00;;;;;;;14.47;8.83;;;;;;;15.45;58.80;98035.31;10279215;28;19920;-53
2023/05/12 14:46:00;;;;;;;;;;;;;;;15.70;59.14;98029.72;10279858;28;20470;-53
2023/05/12 14:51:01;;;;;;;;;;;;;;;15.65;58.30;98021.94;10279073;28;20403;-53
2023/05/12 14:56:01;;;;;;;11.40;7.95;;;;;;;15.55;60.12;98022.97;10279135;28;19921;-53
2023/05/12 15:01:01;;;;;;;9.20;7.50;;;;;;;15.31;61.94;98016.38;10278558;28;20030;-53
2023/05/12 15:06:01;;;;;;;9.50;6.97;;;;;;;15.29;61.89;98012.94;10277312;28;20135;-53
2023/05/12 15:10:59;;;;;;;9.95;7.30;;;;;;;14.90;63.51;98020.50;10278112;28;20077;-53
2023/05/12 15:15:58;;;;;;;;;;;;;;;14.85;63.84;98017.06;10279181;28;20126;-52
2023/05/12 15:20:57;;;;;;;11.93;8.60;;;;;;;14.79;64.92;98018.88;10278860;28;19918;-53
2023/05/12 15:25:56;;;;;;;;;;;;;;;14.66;67.04;98016.41;10279514;28;20065;-52
2023/05/12 15:30:56;;;;;;;11.75;8.10;;;;;;;14.44;66.41;98027.13;10278654;28;19913;-53
2023/05/12 15:35:55;;;;;;;10.52;8.75;;;;;;;14.49;67.04;98017.50;10277835;28;20477;-53
2023/05/12 15:40:54;;;;;;;12.70;9.23;;;;;;;14.59;67.61;98011.28;10277770;28;20129;-52
2023/05/12 15:45:53;;;;;;;9.23;7.10;;;;;;;14.20;68.18;98002.19;10277069;28;20471;-52
2023/05/12 15:50:52;;;;;;;;;;;;;;;13.82;69.54;98015.63;10277231;28;20057;-53
2023/05/12 15:56:02;;;;;;;17.47;15.33;;;;;;;13.43;70.87;97981.22;10284452;28;19917;-52
2023/05/12 16:01:01;;;;;;;13.85;10.20;;;;;;;13.43;72.63;98009.88;10285333;28;20125;-53
2023/05/12 16:05:59;;;;;;;;;;;;;;;13.42;72.77;98013.34;10285091;28;20117;-53
2023/05/12 16:10:59;;;;;;;13.13;8.32;;;;;;;13.05;73.85;98006.69;10284513;28;19917;-52
2023/05/12 16:15:58;;;;;;;12.35;9.68;;;;;;;13.04;73.58;98024.94;10284573;28;20140;-52
2023/05/12 16:20:57;;;;;;;;;;;;;;;13.22;73.48;98016.13;10283995;28;20045;-52
2023/05/12 16:25:58;;;;;;;17.90;12.98;;;;;;;13.12;73.48;97997.94;10284575;28;19956;-52
2023/05/12 16:30:57;;;;;;;74.63;58.92;;;;;;;13.42;72.49;98029.00;10283220;28;20061;-52
2023/05/12 16:35:56;;;;;;;;;;;;;;;13.62;71.62;98034.09;10283916;28;20082;-52
2023/05/12 16:40:55;;;;;;;18.93;14.80;;;;;;;13.77;70.74;98028.72;10283023;28;19961;-52
2023/05/12 16:45:57;;;;;;;;;;;;;;;13.95;69.95;98033.75;10284053;28;20121;-52
2023/05/12 16:51:01;;;;;;;14.60;9.15;;;;;;;14.11;69.25;98036.22;10282586;28;19961;-52
2023/05/12 16:56:00;;;;;;;25.23;17.35;;;;;;;14.24;68.34;98018.66;10282508;28;20129;-52
2023/05/12 17:01:00;;;;;;;17.30;12.75;;;;;;;14.32;68.61;98017.69;10282610;28;20075;-52
2023/05/12 17:05:59;;;;;;;15.82;10.38;;;;;;;14.41;69.08;98017.59;10281932;28;20070;-52
2023/05/12 17:10:58;;;;;;;;;;;;;;;14.37;68.46;98018.50;10282822;28;20077;-51
2023/05/12 17:15:57;;;;;;;14.40;9.57;;;;;;;14.37;67.99;98026.34;10282978;28;19987;-52
2023/05/12 17:20:56;;;;;;;;;;;;;;;14.30;68.81;98026.44;10281557;28;20029;-52
2023/05/12 17:25:55;;;;;;;38.88;17.33;;;;;;;14.12;70.46;98032.72;10314133;28;20018;-52
2023/05/12 17:30:55;;;;;;;;;;;;;;;14.10;71.00;98035.38;10281990;28;20050;-52
2023/05/12 17:35:54;;;;;;;21.00;12.38;;;;;;;14.09;70.54;98036.22;10281324;28;20003;-53
2023/05/12 17:40:52;;;;;;;;;;;;;;;14.07;70.96;98044.94;10281559;28;20044;-52
2023/05/12 17:45:51;;;;;;;28.20;18.27;;;;;;;14.04;71.24;98053.69;10280405;28;19972;-53
2023/05/12 17:50:50;;;;;;;;;;;;;;;13.99;71.62;98053.72;10280472;28;20414;-54
2023/05/12 17:55:49;;;;;;;13.95;10.52;;;;;;;14.01;72.02;98068.50;10279952;28;20012;-52
2023/05/12 18:00:49;;;;;;;;;;;;;;;13.95;72.35;98067.66;10279455;28;20336;-52
2023/05/12 18:05:49;;;;;;;16.67;11.13;;;;;;;13.97;72.42;98070.28;10281323;28;20503;-52
2023/05/12 18:10:48;;;;;;;19.08;11.45;;;;;;;13.92;72.53;98078.16;10279322;28;20061;-52
2023/05/12 18:15:48;;;;;;;;;;;;;;;13.79;72.93;98079.13;10280185;28;20029;-52
2023/05/12 18:20:47;;;;;;;20.75;12.18;;;;;;;13.79;73.11;98079.13;10279734;28;20208;-52
2023/05/12 18:25:46;;;;;;;15.57;11.95;;;;;;;13.60;72.80;98073.19;10280077;28;20108;-52
2023/05/12 18:30:45;;;;;;;18.23;13.35;;;;;;;13.64;72.71;98084.50;10279933;28;20128;-52
2023/05/12 18:35:44;;;;;;;16.75;11.85;;;;;;;13.65;72.64;98086.19;10279788;28;20043;-53
2023/05/12 18:40:43;;;;;;;;;;;;;;;13.63;72.29;98088.81;10279681;28;20129;-52
2023/05/12 18:45:42;;;;;;;47.23;30.87;;;;;;;13.62;71.83;98089.69;10279624;28;19956;-53
2023/05/12 18:50:41;;;;;;;92.68;56.28;;;;;;;13.58;72.09;98093.22;10278751;28;20865;-52
2023/05/12 18:55:40;;;;;;;72.25;47.83;;;;;;;13.55;71.98;98108.88;10278990;28;20129;-53
2023/05/12 19:00:39;;;;;;;;;;;;;;;13.50;71.98;98114.09;10278839;28;20043;-52
2023/05/12 19:05:43;;;;;;;27.20;18.55;;;;;;;13.46;72.78;98114.97;10278917;28;19929;-52
2023/05/12 19:10:42;;;;;;;19.35;14.82;;;;;;;13.44;73.40;98114.13;10278151;28;20074;-52
2023/05/12 19:15:40;;;;;;;;;;;;;;;13.37;73.75;98115.03;10279105;28;20053;-53
2023/05/12 19:20:40;;;;;;;18.55;13.85;;;;;;;13.21;74.09;98116.00;10309021;28;19921;-53
2023/05/12 19:25:39;;;;;;;16.15;11.82;;;;;;;13.05;74.31;98136.09;10277284;28;20116;-52
2023/05/12 19:30:38;;;;;;;;;;;;;;;12.86;75.17;98140.50;10287310;28;20049;-52
2023/05/12 19:35:37;;;;;;;13.68;11.50;;;;;;;12.68;75.62;98131.88;10286754;28;19925;-52
2023/05/12 19:40:35;;;;;;;15.13;10.95;;;;;;;12.48;75.96;98134.53;10285063;28;20498;-52
2023/05/12 19:45:35;;;;;;;15.45;10.95;;;;;;;11.92;76.46;98053.97;10286022;28;20525;-53
2023/05/12 19:50:34;;;;;;;16.63;11.07;;;;;;;12.17;76.24;98125.91;10284757;28;20066;-52
2023/05/12 19:55:33;;;;;;;13.50;10.23;;;;;;;11.96;76.60;98119.00;10285635;28;20109;-52
2023/05/12 20:00:32;;;;;;;15.15;11.07;;;;;;;11.84;76.38;98119.84;10284855;28;20064;-52
2023/05/12 20:05:34;;;;;;;13.40;10.02;;;;;;;11.65;76.67;98120.72;10283839;28;20053;-52
2023/05/12 20:10:33;;;;;;;16.52;11.70;;;;;;;11.52;76.97;98117.25;10285151;28;20128;-52
2023/05/12 20:15:35;;;;;;;15.15;10.88;;;;;;;11.38;77.38;98104.22;10283585;28;20041;-52
2023/05/12 20:20:34;;;;;;;12.63;9.45;;;;;;;11.00;77.69;98089.44;10283530;28;20112;-52
2023/05/12 20:25:34;;;;;;;14.15;10.07;;;;;;;11.13;77.55;98125.84;10284438;28;20117;-51
2023/05/12 20:30:34;;;;;;;14.38;10.65;;;;;;;11.04;78.13;98114.56;10282661;28;20121;-52
2023/05/12 20:35:33;;;;;;;14.55;10.45;;;;;;;11.03;77.76;98111.94;10284683;28;20548;-52
2023/05/12 20:40:32;;;;;;;14.48;11.40;;;;;;;11.00;78.03;98107.63;10282961;28;20492;-52
2023/05/12 20:45:31;;;;;;;18.20;12.40;;;;;;;10.93;78.14;98115.38;10283311;28;20069;-51
2023/05/12 20:50:30;;;;;;;;;;;;;;;10.77;78.37;98115.28;10283766;28;20570;-52
2023/05/12 20:55:31;;;;;;;12.90;8.30;;;;;;;10.55;77.50;98085.78;10283164;28;20019;-52
2023/05/12 21:00:30;;;;;;;10.55;7.20;;;;;;;10.61;76.49;98101.41;10281771;28;20076;-52
2023/05/12 21:05:29;;;;;;;12.55;8.63;;;;;;;10.54;76.79;98091.84;10281933;28;20036;-52
2023/05/12 21:10:30;;;;;;;12.18;8.27;;;;;;;10.23;76.89;98040.69;10283139;28;20124;-52
2023/05/12 21:15:29;;;;;;;17.42;12.32;;;;;;;10.48;77.80;98080.59;10283166;28;20077;-52
2023/05/12 21:20:28;;;;;;;17.73;11.45;;;;;;;10.37;78.07;98078.78;10281884;28;20447;-52
2023/05/12 21:25:27;;;;;;;61.28;34.75;;;;;;;10.21;79.25;98110.69;10281698;28;20045;-52
2023/05/12 21:30:26;;;;;;;22.55;12.95;;;;;;;10.25;78.92;98112.44;10281752;28;20112;-53
2023/05/12 21:35:25;;;;;;;18.27;12.65;;;;;;;10.08;80.82;98106.31;10282246;28;20044;-52
2023/05/12 21:40:24;;;;;;;22.05;14.85;;;;;;;10.13;81.29;98104.59;10281272;28;20072;-52
2023/05/12 21:45:23;;;;;;;20.30;14.48;;;;;;;10.09;82.38;98101.09;10281053;28;20022;-53
2023/05/12 21:50:22;;;;;;;20.38;14.80;;;;;;;10.13;82.69;98100.28;10280292;28;21571;-52
2023/05/12 21:55:21;;;;;;;29.52;19.98;;;;;;;10.24;82.14;98089.09;10280982;28;20117;-51
2023/05/12 22:00:20;;;;;;;29.70;20.25;;;;;;;10.18;84.05;98090.78;10280403;28;20083;-52
2023/05/12 22:05:19;;;;;;;28.20;18.38;;;;;;;10.19;84.16;98094.25;10280899;28;20038;-52
2023/05/12 22:10:18;;;;;;;20.48;16.17;;;;;;;10.16;83.88;98097.69;10276702;28;20112;-52
2023/05/12 22:15:17;;;;;;;16.23;12.77;;;;;;;9.97;84.05;98098.44;10277673;28;20113;-52
2023/05/12 22:20:17;;;;;;;23.25;14.45;;;;;;;10.09;83.62;98101.09;10276362;28;20540;-52
2023/05/12 22:25:16;;;;;;;24.80;17.08;;;;;;;10.15;82.56;98106.34;10277127;28;20121;-52
2023/05/12 22:30:16;;;;;;;24.23;16.25;;;;;;;9.85;84.73;98111.31;10276704;28;20060;-52
2023/05/12 22:35:15;;;;;;;18.20;14.02;;;;;;;9.96;84.10;98105.34;10278283;28;20125;-52
2023/05/12 22:40:15;;;;;;;15.68;12.25;;;;;;;9.97;83.86;98095.84;10279701;28;20468;-52
2023/05/12 22:45:13;;;;;;;;;;;;;;;10.05;82.88;98096.78;10279472;28;20541;-52
2023/05/12 22:50:12;;;;;;;7.60;4.72;;;;;;;10.10;74.50;98096.81;10278978;28;19927;-52
2023/05/12 22:55:11;;;;;;;31.08;4.88;;;;;;;10.37;62.79;98090.88;10279658;28;20428;-52
2023/05/12 23:00:11;;;;;;;4.15;2.55;;;;;;;10.80;62.02;98088.50;10278497;28;20034;-52
2023/05/12 23:05:10;;;;;;;3.28;2.42;;;;;;;11.04;58.60;98083.41;10278674;28;20054;-52
2023/05/12 23:10:09;;;;;;;4.40;2.50;;;;;;;11.28;55.78;98080.84;10279125;28;20045;-53
2023/05/12 23:15:08;;;;;;;5.95;2.83;;;;;;;11.51;56.05;98078.28;10278354;28;20124;-52
2023/05/12 23:20:07;;;;;;;;;;;;;;;11.63;52.87;98075.66;10279432;28;20117;-52
2023/05/12 23:25:07;;;;;;;4.38;2.70;;;;;;;11.76;52.90;98059.22;10278407;28;20000;-53
2023/05/12 23:30:06;;;;;;;5.20;2.30;;;;;;;11.79;51.93;98058.34;10279045;28;20482;-52